Terminal Aerodrome Forecast
Issued by NWS

Home | Current Version | Previous Version | Text Only | Print | Product List | Glossary On
Versions: 1 2 3 4 5 6 7 8 9 10 11 12 13 14 15 16 17 18 19 20 21 22 23 24 25 26
000
FTUS43 KDVN 301355 AAB
TAFBRL
TAF AMD
KBRL 301355Z 3014/3112 21005KT 5SM BR VCSH BKN006 OVC025
      TEMPO 3014/3017 P6SM -SHRA SCT006 OVC025
     FM301800 02017G25KT P6SM VCSH BKN015 OVC040
     FM310000 06014G22KT P6SM SCT025 BKN050
     FM310500 02011KT P6SM SCT025=

USA.gov is the U.S. government's official web portal to all federal, state and local government web resources and services.